createdAt,value
2018-12-13T00:01:51.018Z,-8.84
2018-12-13T00:04:27.041Z,-9.04
2018-12-13T00:07:02.827Z,-9.05
2018-12-13T00:09:38.880Z,-8.83
2018-12-13T00:12:14.961Z,-8.91
2018-12-13T00:14:51.100Z,-9.17
2018-12-13T00:17:27.139Z,-9.49
2018-12-13T00:20:05.333Z,-9.52
2018-12-13T00:22:41.347Z,-9.73
2018-12-13T00:25:17.534Z,-9.54
2018-12-13T00:27:53.526Z,-9.45
2018-12-13T00:30:29.455Z,-9.23
2018-12-13T00:33:05.606Z,-8.85
2018-12-13T00:35:41.599Z,-8.44
2018-12-13T00:38:17.405Z,-8.42
2018-12-13T00:40:53.733Z,-9.06
2018-12-13T00:43:29.831Z,-9.26
2018-12-13T00:46:05.862Z,-9.31
2018-12-13T00:48:41.955Z,-8.84
2018-12-13T00:51:17.843Z,-8.71
2018-12-13T00:53:54.097Z,-8.92
2018-12-13T00:56:30.393Z,-9.06
2018-12-13T00:59:06.534Z,-8.62
2018-12-13T01:01:42.833Z,-8.64
2018-12-13T01:04:19.421Z,-8.58
2018-12-13T01:06:55.589Z,-8.48
2018-12-13T01:09:31.653Z,-8.52
2018-12-13T01:12:07.687Z,-8.90
2018-12-13T01:14:43.769Z,-9.08
2018-12-13T01:17:20.143Z,-9.88
2018-12-13T01:19:56.211Z,-9.51
2018-12-13T01:22:32.236Z,-9.31
2018-12-13T01:25:08.802Z,-9.02
2018-12-13T01:27:45.104Z,-9.55
2018-12-13T01:30:21.089Z,-9.80
2018-12-13T01:32:56.975Z,-9.97
2018-12-13T01:35:33.191Z,-9.97
2018-12-13T01:38:09.237Z,-9.83
2018-12-13T01:40:45.603Z,-9.79
2018-12-13T01:43:21.647Z,-9.42
2018-12-13T01:45:57.724Z,-9.25
2018-12-13T01:48:33.768Z,-9.57
2018-12-13T01:51:09.836Z,-9.49
2018-12-13T01:53:45.879Z,-9.63
2018-12-13T01:56:21.980Z,-9.72
2018-12-13T01:58:58.017Z,-9.70
2018-12-13T02:01:34.093Z,-9.44
2018-12-13T02:04:10.121Z,-9.40
2018-12-13T02:06:46.185Z,-9.39
2018-12-13T02:09:22.263Z,-9.07
2018-12-13T02:11:58.332Z,-9.68
2018-12-13T02:14:34.844Z,-10.49
2018-12-13T02:17:10.775Z,-10.48
2018-12-13T02:19:47.099Z,-10.38
2018-12-13T02:22:23.196Z,-10.44
2018-12-13T02:24:59.560Z,-10.19
2018-12-13T02:27:35.616Z,-10.32
2018-12-13T02:30:12.446Z,-10.01
2018-12-13T02:32:49.323Z,-10.01
2018-12-13T02:35:25.331Z,-9.75
2018-12-13T02:38:01.386Z,-9.48
2018-12-13T02:40:37.948Z,-9.28
2018-12-13T02:43:14.138Z,-10.03
2018-12-13T02:45:50.160Z,-9.90
2018-12-13T02:48:26.247Z,-9.69
2018-12-13T02:51:02.277Z,-9.86
2018-12-13T02:53:38.378Z,-9.65
2018-12-13T02:56:14.390Z,-9.97
2018-12-13T02:58:50.167Z,-10.10
2018-12-13T03:01:26.144Z,-9.65
2018-12-13T03:04:02.290Z,-9.45
2018-12-13T03:06:38.327Z,-9.57
2018-12-13T03:09:14.415Z,-10.16
2018-12-13T03:11:50.469Z,-10.61
2018-12-13T03:14:26.554Z,-10.23
2018-12-13T03:17:02.692Z,-10.94
2018-12-13T03:19:39.024Z,-10.51
2018-12-13T03:22:15.068Z,-10.15
2018-12-13T03:24:50.990Z,-10.01
2018-12-13T03:27:27.131Z,-10.64
2018-12-13T03:30:03.725Z,-10.60
2018-12-13T03:32:39.733Z,-10.85
2018-12-13T03:35:15.733Z,-10.79
2018-12-13T03:37:51.986Z,-10.29
2018-12-13T03:40:28.369Z,-10.47
2018-12-13T03:43:04.438Z,-10.86
2018-12-13T03:45:40.487Z,-10.90
2018-12-13T03:48:16.539Z,-10.58
2018-12-13T03:50:53.111Z,-10.50
2018-12-13T03:53:28.963Z,-10.17
2018-12-13T03:56:05.062Z,-9.61
2018-12-13T03:58:41.426Z,-9.91
2018-12-13T04:01:17.483Z,-9.63
2018-12-13T04:03:53.499Z,-9.70
2018-12-13T04:06:29.625Z,-10.37
2018-12-13T04:09:07.529Z,-10.67
2018-12-13T04:11:42.667Z,-11.06
2018-12-13T04:14:17.683Z,-10.70
2018-12-13T04:16:54.106Z,-10.35
2018-12-13T04:19:29.260Z,-10.05
2018-12-13T04:22:05.550Z,-10.42
2018-12-13T04:24:41.689Z,-10.26
2018-12-13T04:27:17.775Z,-10.06
2018-12-13T04:29:54.310Z,-10.02
2018-12-13T04:32:30.224Z,-10.05
2018-12-13T04:35:06.389Z,-10.07
2018-12-13T04:37:42.624Z,-9.76
2018-12-13T04:40:18.661Z,-10.53
2018-12-13T04:42:54.750Z,-10.52
2018-12-13T04:45:30.783Z,-11.04
2018-12-13T04:48:06.729Z,-10.85
2018-12-13T04:50:42.905Z,-10.64
2018-12-13T04:53:18.980Z,-11.00
2018-12-13T04:55:55.150Z,-10.97
2018-12-13T04:58:31.572Z,-10.97
2018-12-13T05:01:07.526Z,-10.58
2018-12-13T05:03:43.520Z,-10.28
2018-12-13T05:06:19.570Z,-9.77
2018-12-13T05:08:55.683Z,-9.62
2018-12-13T05:11:32.087Z,-9.58
2018-12-13T05:14:08.736Z,-9.46
2018-12-13T05:16:44.697Z,-9.31
2018-12-13T05:19:20.837Z,-9.66
2018-12-13T05:21:57.176Z,-10.23
2018-12-13T05:24:33.318Z,-10.26
2018-12-13T05:27:09.266Z,-10.65
2018-12-13T05:29:45.153Z,-10.69
2018-12-13T05:32:21.432Z,-10.69
2018-12-13T05:34:57.806Z,-10.86
2018-12-13T05:37:33.987Z,-10.58
2018-12-13T05:40:09.916Z,-10.24
2018-12-13T05:42:45.940Z,-9.74
2018-12-13T05:45:22.049Z,-9.64
2018-12-13T05:47:58.096Z,-9.45
2018-12-13T05:50:34.158Z,-9.20
2018-12-13T05:53:10.203Z,-9.27
2018-12-13T05:55:46.280Z,-9.12
2018-12-13T05:58:22.097Z,-9.05
2018-12-13T06:00:58.121Z,-9.28
2018-12-13T06:03:34.754Z,-9.10
2018-12-13T06:07:35.145Z,-9.31
2018-12-13T06:10:13.512Z,-9.52
2018-12-13T06:12:49.591Z,-9.71
2018-12-13T06:15:25.617Z,-9.68
2018-12-13T06:18:06.800Z,-10.11
2018-12-13T06:20:48.112Z,-10.10
2018-12-13T06:23:24.053Z,-10.03
2018-12-13T06:26:00.002Z,-10.26
2018-12-13T06:28:36.110Z,-10.80
2018-12-13T06:31:12.111Z,-11.01
2018-12-13T06:33:48.205Z,-11.11
2018-12-13T06:36:27.006Z,-10.84
2018-12-13T06:39:04.240Z,-10.72
2018-12-13T06:41:40.353Z,-10.32
2018-12-13T06:44:17.069Z,-9.89
2018-12-13T06:46:53.672Z,-9.51
2018-12-13T06:49:29.782Z,-9.29
2018-12-13T06:52:05.818Z,-9.83
2018-12-13T06:54:41.916Z,-9.41
2018-12-13T06:57:18.248Z,-9.22
2018-12-13T06:59:54.360Z,-8.90
2018-12-13T07:02:30.604Z,-8.60
2018-12-13T07:05:07.314Z,-8.34
2018-12-13T07:07:43.422Z,-8.82
2018-12-13T07:10:19.560Z,-9.09
2018-12-13T07:12:55.860Z,-8.93
2018-12-13T07:15:31.921Z,-8.84
2018-12-13T07:18:07.949Z,-9.01
2018-12-13T07:20:43.738Z,-8.85
2018-12-13T07:23:19.761Z,-8.49
2018-12-13T07:25:55.966Z,-8.37
2018-12-13T07:28:31.885Z,-8.34
2018-12-13T07:31:07.997Z,-8.08
2018-12-13T07:33:44.042Z,-7.70
2018-12-13T07:36:20.590Z,-7.22
2018-12-13T07:38:57.962Z,-6.81
2018-12-13T07:41:35.206Z,-6.68
2018-12-13T07:44:11.321Z,-7.14
2018-12-13T07:46:47.403Z,-7.16
2018-12-13T07:49:23.449Z,-7.60
2018-12-13T07:51:59.556Z,-7.23
2018-12-13T07:54:38.034Z,-7.01
2018-12-13T07:57:14.190Z,-6.53
2018-12-13T07:59:50.125Z,-6.35
2018-12-13T08:02:25.983Z,-6.22
2018-12-13T08:05:01.962Z,-6.09
2018-12-13T08:07:38.083Z,-5.92
2018-12-13T08:10:14.057Z,-5.93
2018-12-13T08:12:51.233Z,-5.68
2018-12-13T08:15:27.141Z,-5.46
2018-12-13T08:18:03.226Z,-5.25
2018-12-13T08:20:39.265Z,-5.01
2018-12-13T08:23:15.434Z,-4.85
2018-12-13T08:25:51.430Z,-4.85
2018-12-13T08:28:27.777Z,-4.79
2018-12-13T08:38:10.011Z,-4.63
2018-12-13T08:40:47.243Z,-5.17
2018-12-13T08:43:23.327Z,-5.61
2018-12-13T08:45:59.378Z,-5.59
2018-12-13T08:48:35.793Z,-5.51
2018-12-13T08:51:12.640Z,-5.20
2018-12-13T08:53:48.741Z,-4.87
2018-12-13T08:56:25.135Z,-4.23
2018-12-13T08:59:01.258Z,-4.12
2018-12-13T09:01:37.485Z,-4.28
2018-12-13T09:04:13.767Z,-4.40
2018-12-13T09:06:49.582Z,-4.16
2018-12-13T09:09:25.714Z,-4.16
2018-12-13T09:12:01.729Z,-3.98
2018-12-13T09:14:37.827Z,-4.23
2018-12-13T09:17:13.978Z,-4.24
2018-12-13T09:19:50.337Z,-4.11
2018-12-13T09:22:26.605Z,-4.53
2018-12-13T09:25:02.688Z,-4.40
2018-12-13T09:27:38.709Z,-4.33
2018-12-13T09:30:15.325Z,-4.00
2018-12-13T09:32:51.459Z,-3.91
2018-12-13T09:35:27.886Z,-3.71
2018-12-13T09:38:04.179Z,-3.61
2018-12-13T09:40:40.282Z,-3.49
2018-12-13T09:43:16.418Z,-3.39
2018-12-13T09:45:52.427Z,-3.29
2018-12-13T09:48:28.435Z,-3.23
2018-12-13T09:51:04.597Z,-3.24
2018-12-13T09:53:40.546Z,-3.07
2018-12-13T09:56:16.646Z,-2.86
2018-12-13T09:58:52.675Z,-2.70
2018-12-13T10:01:28.766Z,-2.50
2018-12-13T10:04:04.821Z,-2.44
2018-12-13T10:06:40.933Z,-2.05
2018-12-13T10:09:16.773Z,-1.81
2018-12-13T10:11:53.014Z,-1.90
2018-12-13T10:14:29.022Z,-2.03
2018-12-13T10:17:05.278Z,-2.43
2018-12-13T10:19:41.471Z,-2.11
2018-12-13T10:22:17.661Z,-1.60
2018-12-13T10:24:53.870Z,-1.23
2018-12-13T10:27:29.821Z,-1.03
2018-12-13T10:30:06.749Z,-0.49
2018-12-13T10:32:43.041Z,-0.07
2018-12-13T10:35:19.228Z,0.12
2018-12-13T10:37:55.538Z,0.27
2018-12-13T10:40:31.780Z,0.35
2018-12-13T10:43:07.874Z,0.63
2018-12-13T10:45:44.362Z,0.58
2018-12-13T10:48:20.312Z,0.75
2018-12-13T10:50:56.303Z,0.98
2018-12-13T10:53:32.491Z,1.07
2018-12-13T10:56:08.457Z,1.23
2018-12-13T10:58:44.559Z,1.42
2018-12-13T11:01:25.755Z,1.20
2018-12-13T11:04:01.893Z,1.30
2018-12-13T11:06:37.899Z,0.82
2018-12-13T11:09:14.156Z,0.88
2018-12-13T11:11:50.346Z,1.35
2018-12-13T11:14:26.168Z,1.41
2018-12-13T11:17:02.129Z,1.43
2018-12-13T11:19:38.259Z,1.17
2018-12-13T11:22:14.607Z,1.25
2018-12-13T11:24:50.775Z,1.42
2018-12-13T11:29:39.913Z,1.46
2018-12-13T11:32:16.590Z,0.96
2018-12-13T11:34:52.382Z,1.18
2018-12-13T11:37:28.589Z,1.44
2018-12-13T11:40:04.723Z,1.49
2018-12-13T11:42:41.012Z,0.74
2018-12-13T11:45:17.039Z,1.01
2018-12-13T11:47:53.138Z,1.00
2018-12-13T11:50:29.138Z,1.22
2018-12-13T11:53:05.242Z,0.43
2018-12-13T11:55:41.291Z,0.67
2018-12-13T11:58:17.787Z,0.85
2018-12-13T12:00:53.983Z,1.05
2018-12-13T12:03:30.091Z,1.17
2018-12-13T12:06:06.103Z,1.14
2018-12-13T12:08:42.237Z,0.40
2018-12-13T12:11:18.643Z,0.17
2018-12-13T12:13:54.737Z,0.28
2018-12-13T12:16:30.699Z,0.41
2018-12-13T12:19:06.789Z,0.65
2018-12-13T12:21:42.791Z,0.52
2018-12-13T12:24:18.885Z,0.83
2018-12-13T12:26:54.897Z,1.01
2018-12-13T12:29:31.058Z,0.91
2018-12-13T12:32:07.036Z,0.71
2018-12-13T12:34:43.035Z,0.82
2018-12-13T12:37:19.146Z,0.95
2018-12-13T12:39:55.210Z,1.20
2018-12-13T12:42:31.288Z,1.09
2018-12-13T12:45:08.639Z,1.02
2018-12-13T12:47:44.625Z,1.21
2018-12-13T12:50:20.774Z,1.44
2018-12-13T12:52:56.722Z,1.65
2018-12-13T12:55:32.859Z,1.70
2018-12-13T12:58:08.831Z,1.78
2018-12-13T13:00:44.973Z,1.89
2018-12-13T13:03:20.961Z,2.02
2018-12-13T13:05:57.075Z,1.83
2018-12-13T13:08:33.097Z,1.48
2018-12-13T13:11:09.431Z,1.50
2018-12-13T13:13:45.535Z,0.85
2018-12-13T13:16:22.029Z,1.05
2018-12-13T13:18:57.918Z,0.94
2018-12-13T13:21:34.598Z,1.01
2018-12-13T13:24:10.653Z,0.95
2018-12-13T13:26:46.802Z,1.09
2018-12-13T13:29:22.780Z,0.85
2018-12-13T13:31:59.345Z,1.14
2018-12-13T13:34:35.565Z,1.08
2018-12-13T13:37:11.959Z,0.91
2018-12-13T13:39:47.965Z,0.88
2018-12-13T13:42:24.083Z,0.47
2018-12-13T13:45:02.679Z,0.21
2018-12-13T13:47:41.549Z,0.22
2018-12-13T13:50:18.718Z,0.52
2018-12-13T13:52:54.690Z,0.32
2018-12-13T13:55:30.551Z,0.52
2018-12-13T13:58:06.571Z,0.42
2018-12-13T14:00:42.601Z,0.50
2018-12-13T14:03:19.129Z,0.64
2018-12-13T14:05:55.368Z,0.39
2018-12-13T14:08:31.912Z,0.39
2018-12-13T14:11:08.081Z,-0.10
2018-12-13T14:13:44.995Z,-0.18
2018-12-13T14:16:20.857Z,-0.44
2018-12-13T14:18:56.988Z,-0.59
2018-12-13T14:21:32.928Z,-0.73
2018-12-13T14:24:09.054Z,-0.84
2018-12-13T14:26:45.067Z,-0.88
2018-12-13T14:29:21.150Z,-0.90
2018-12-13T14:31:57.209Z,-1.05
2018-12-13T14:34:33.677Z,-1.13
2018-12-13T14:37:09.605Z,-1.16
2018-12-13T14:39:45.571Z,-1.20
2018-12-13T14:42:21.749Z,-1.37
2018-12-13T14:45:03.234Z,-1.02
2018-12-13T14:47:39.398Z,-0.88
2018-12-13T14:50:15.550Z,-0.87
2018-12-13T14:52:51.826Z,-0.82
2018-12-13T14:55:28.015Z,-0.91
2018-12-13T14:58:04.310Z,-0.93
2018-12-13T15:00:41.456Z,-0.98
2018-12-13T15:03:17.846Z,-1.02
2018-12-13T15:05:54.106Z,-1.05
2018-12-13T15:08:30.341Z,-1.15
2018-12-13T15:11:06.818Z,-1.02
2018-12-13T15:13:42.790Z,-0.98
2018-12-13T15:16:18.900Z,-1.03
2018-12-13T15:18:55.192Z,-1.19
2018-12-13T15:21:32.314Z,-1.29
2018-12-13T15:24:08.552Z,-1.27
2018-12-13T15:26:44.605Z,-1.30
2018-12-13T15:29:20.640Z,-1.30
2018-12-13T15:31:59.496Z,-1.38
2018-12-13T15:34:34.917Z,-1.87
2018-12-13T15:37:11.101Z,-1.53
2018-12-13T15:39:47.340Z,-1.57
2018-12-13T15:42:23.445Z,-1.97
2018-12-13T15:44:59.470Z,-1.88
2018-12-13T15:47:35.536Z,-1.83
2018-12-13T15:50:11.626Z,-1.79
2018-12-13T15:52:48.428Z,-1.74
2018-12-13T15:55:24.673Z,-1.93
2018-12-13T15:58:01.177Z,-2.27
2018-12-13T16:00:37.038Z,-2.11
2018-12-13T16:03:13.157Z,-1.92
2018-12-13T16:05:49.160Z,-1.92
2018-12-13T16:08:25.847Z,-1.75
2018-12-13T16:11:01.915Z,-1.83
2018-12-13T16:13:37.921Z,-1.19
2018-12-13T16:16:14.024Z,-1.25
2018-12-13T16:18:50.184Z,-0.87
2018-12-13T16:21:26.177Z,-0.89
2018-12-13T16:24:02.686Z,-0.99
2018-12-13T16:26:38.587Z,-1.13
2018-12-13T16:29:14.691Z,-1.16
2018-12-13T16:31:50.712Z,-1.03
2018-12-13T16:34:27.127Z,-1.31
2018-12-13T16:37:03.125Z,-1.67
2018-12-13T16:39:39.183Z,-1.76
2018-12-13T16:42:15.280Z,-1.71
2018-12-13T16:44:53.728Z,-1.83
2018-12-13T16:47:29.544Z,-1.82
2018-12-13T16:50:06.858Z,-2.07
2018-12-13T16:52:42.915Z,-2.20
2018-12-13T16:55:19.093Z,-2.16
2018-12-13T16:57:55.308Z,-2.13
2018-12-13T17:00:31.504Z,-2.28
2018-12-13T17:03:42.736Z,-2.14
2018-12-13T17:06:18.899Z,-2.56
2018-12-13T17:08:54.868Z,-2.29
2018-12-13T17:11:31.104Z,-2.35
2018-12-13T17:14:07.345Z,-2.48
2018-12-13T17:16:50.001Z,-2.63
2018-12-13T17:19:26.413Z,-2.90
2018-12-13T17:22:02.780Z,-2.54
2018-12-13T17:24:38.925Z,-2.42
2018-12-13T17:27:15.302Z,-2.23
2018-12-13T17:29:51.392Z,-2.52
2018-12-13T17:32:27.262Z,-2.64
2018-12-13T17:35:03.570Z,-2.88
2018-12-13T17:37:39.830Z,-2.79
2018-12-13T17:40:15.910Z,-2.83
2018-12-13T17:42:52.046Z,-2.74
2018-12-13T17:45:30.049Z,-2.38
2018-12-13T17:48:06.320Z,-2.26
2018-12-13T17:50:42.657Z,-2.34
2018-12-13T17:53:19.533Z,-2.18
2018-12-13T17:55:55.719Z,-1.98
2018-12-13T17:58:31.760Z,-2.31
2018-12-13T18:01:07.854Z,-2.34
2018-12-13T18:03:43.939Z,-2.49
2018-12-13T18:06:19.971Z,-2.34
2018-12-13T18:08:56.313Z,-2.45
2018-12-13T18:11:32.341Z,-2.21
2018-12-13T18:14:08.422Z,-2.44
2018-12-13T18:16:44.716Z,-2.39
2018-12-13T18:19:20.819Z,-2.27
2018-12-13T18:21:56.581Z,-2.11
2018-12-13T18:24:32.692Z,-2.16
2018-12-13T18:27:08.679Z,-1.99
2018-12-13T18:29:45.124Z,-2.04
2018-12-13T18:32:21.420Z,-2.04
2018-12-13T18:35:00.051Z,-2.01
2018-12-13T18:37:35.833Z,-2.01
2018-12-13T18:40:11.807Z,-2.02
2018-12-13T18:42:48.661Z,-1.97
2018-12-13T18:45:25.171Z,-2.19
2018-12-13T18:48:01.157Z,-2.36
2018-12-13T18:50:37.546Z,-2.19
2018-12-13T18:53:13.599Z,-2.29
2018-12-13T18:55:49.652Z,-2.21
2018-12-13T18:58:25.991Z,-2.25
2018-12-13T19:01:02.443Z,-2.12
2018-12-13T19:03:38.775Z,-2.17
2018-12-13T19:06:14.928Z,-2.09
2018-12-13T19:08:51.175Z,-1.98
2018-12-13T19:11:27.682Z,-1.92
2018-12-13T19:14:04.493Z,-1.82
2018-12-13T19:16:41.651Z,-1.79
2018-12-13T19:19:17.818Z,-1.69
2018-12-13T19:21:53.994Z,-1.68
2018-12-13T19:24:30.598Z,-1.86
2018-12-13T19:27:06.676Z,-2.11
2018-12-13T19:29:42.410Z,-2.02
2018-12-13T19:32:18.889Z,-1.70
2018-12-13T19:35:00.275Z,-1.32
2018-12-13T19:37:33.382Z,-1.46
2018-12-13T19:40:09.895Z,-1.42
2018-12-13T19:42:49.194Z,-1.48
2018-12-13T19:45:25.217Z,-1.45
2018-12-13T19:48:01.347Z,-1.53
2018-12-13T19:50:37.953Z,-1.57
2018-12-13T19:53:14.432Z,-1.47
2018-12-13T19:55:50.394Z,-1.56
2018-12-13T19:58:26.166Z,-1.38
2018-12-13T20:01:02.215Z,-1.36
2018-12-13T20:03:38.891Z,-1.32
2018-12-13T20:06:15.310Z,-1.38
2018-12-13T20:08:51.630Z,-1.48
2018-12-13T20:11:27.658Z,-1.42
2018-12-13T20:14:03.816Z,-1.59
2018-12-13T20:16:39.767Z,-1.78
2018-12-13T20:19:15.634Z,-1.76
2018-12-13T20:21:51.905Z,-1.61
2018-12-13T20:24:28.323Z,-1.73
2018-12-13T20:27:06.270Z,-1.77
2018-12-13T20:29:43.882Z,-1.67
2018-12-13T20:32:21.249Z,-1.69
2018-12-13T20:34:58.275Z,-1.70
2018-12-13T20:37:34.526Z,-1.59
2018-12-13T20:40:10.532Z,-1.43
2018-12-13T20:42:46.276Z,-1.39
2018-12-13T20:45:23.334Z,-1.55
2018-12-13T20:47:59.309Z,-1.68
2018-12-13T20:50:35.415Z,-1.72
2018-12-13T20:53:11.458Z,-1.77
2018-12-13T20:55:47.721Z,-1.96
2018-12-13T20:58:23.915Z,-1.82
2018-12-13T21:01:00.137Z,-1.73
2018-12-13T21:03:36.397Z,-1.68
2018-12-13T21:06:13.339Z,-1.67
2018-12-13T21:08:49.386Z,-1.59
2018-12-13T21:11:28.211Z,-1.52
2018-12-13T21:14:04.623Z,-1.48
2018-12-13T21:16:40.901Z,-2.02
2018-12-13T21:19:16.897Z,-2.53
2018-12-13T21:21:53.257Z,-2.27
2018-12-13T21:24:29.318Z,-2.27
2018-12-13T21:27:05.462Z,-2.18
2018-12-13T21:29:41.332Z,-2.37
2018-12-13T21:32:17.235Z,-2.03
2018-12-13T21:34:53.141Z,-1.92
2018-12-13T21:37:29.798Z,-1.81
2018-12-13T21:40:07.529Z,-1.73
2018-12-13T21:42:43.554Z,-1.63
2018-12-13T21:45:19.690Z,-1.67
2018-12-13T21:47:56.097Z,-1.67
2018-12-13T21:50:32.774Z,-1.69
2018-12-13T21:53:09.265Z,-1.72
2018-12-13T21:55:47.789Z,-1.85
2018-12-13T21:58:26.063Z,-1.77
2018-12-13T22:01:04.055Z,-1.68
2018-12-13T22:03:40.693Z,-1.71
2018-12-13T22:06:18.667Z,-1.60
2018-12-13T22:08:56.683Z,-1.70
2018-12-13T22:11:33.154Z,-1.78
2018-12-13T22:14:10.683Z,-2.26
2018-12-13T22:16:47.707Z,-1.98
2018-12-13T22:19:25.396Z,-2.16
2018-12-13T22:22:01.973Z,-2.18
2018-12-13T22:24:38.307Z,-2.06
2018-12-13T22:30:12.053Z,-1.83
2018-12-13T22:32:48.670Z,-1.78
2018-12-13T22:35:24.981Z,-1.61
2018-12-13T22:38:01.403Z,-1.60
2018-12-13T22:40:38.548Z,-1.63
2018-12-13T22:43:20.447Z,-1.70
2018-12-13T22:45:55.201Z,-1.66
2018-12-13T22:48:33.195Z,-1.54
2018-12-13T22:51:12.390Z,-1.55
2018-12-13T22:53:49.510Z,-1.46
2018-12-13T22:56:30.534Z,-1.47
2018-12-13T22:59:06.832Z,-1.43
2018-12-13T23:01:45.668Z,-1.55
2018-12-13T23:04:30.249Z,-2.17
2018-12-13T23:07:10.083Z,-2.28
2018-12-13T23:09:48.314Z,-2.07
2018-12-13T23:12:27.308Z,-1.83
2018-12-13T23:15:04.470Z,-1.87
2018-12-13T23:17:41.447Z,-1.96
2018-12-13T23:20:18.624Z,-1.96
2018-12-13T23:22:55.309Z,-1.94
2018-12-13T23:25:32.326Z,-1.74
2018-12-13T23:28:10.196Z,-1.68
2018-12-13T23:30:49.660Z,-1.66
2018-12-13T23:33:28.373Z,-1.62
2018-12-13T23:36:06.053Z,-1.61
2018-12-13T23:38:44.799Z,-1.55
2018-12-13T23:41:21.641Z,-1.62
2018-12-13T23:44:00.420Z,-1.60
2018-12-13T23:46:37.019Z,-1.65
2018-12-13T23:49:14.311Z,-1.68
2018-12-13T23:51:51.417Z,-1.63
2018-12-13T23:54:27.868Z,-1.58
2018-12-13T23:57:05.354Z,-1.50
2018-12-13T23:59:45.305Z,-1.48
